sensor_id;sensor_type;location;lat;lon;timestamp;pressure;altitude;pressure_sealevel;temperature;humidity
67015;BME280;1033;52.560;13.374;2022-12-07T00:01:47;100790.34;;;2.74;100.00
67015;BME280;1033;52.560;13.374;2022-12-07T00:04:25;100785.50;;;2.78;100.00
67015;BME280;1033;52.560;13.374;2022-12-07T00:06:55;100782.38;;;2.82;100.00
67015;BME280;1033;52.560;13.374;2022-12-07T00:09:24;100782.88;;;2.60;100.00
67015;BME280;1033;52.560;13.374;2022-12-07T00:11:53;100775.13;;;2.57;100.00
67015;BME280;1033;52.560;13.374;2022-12-07T00:14:22;100764.31;;;2.58;100.00
67015;BME280;1033;52.560;13.374;2022-12-07T00:16:52;100771.84;;;2.63;100.00
67015;BME280;1033;52.560;13.374;2022-12-07T00:19:21;100771.19;;;2.61;100.00
67015;BME280;1033;52.560;13.374;2022-12-07T00:21:50;100772.84;;;2.62;100.00
67015;BME280;1033;52.560;13.374;2022-12-07T00:24:21;100761.50;;;2.60;100.00
67015;BME280;1033;52.560;13.374;2022-12-07T00:26:51;100762.56;;;2.49;100.00
67015;BME280;1033;52.560;13.374;2022-12-07T00:29:24;100760.72;;;2.50;100.00
67015;BME280;1033;52.560;13.374;2022-12-07T00:31:54;100760.34;;;2.62;100.00
67015;BME280;1033;52.560;13.374;2022-12-07T00:34:24;100756.16;;;2.60;100.00
67015;BME280;1033;52.560;13.374;2022-12-07T00:36:54;100758.22;;;2.66;100.00
67015;BME280;1033;52.560;13.374;2022-12-07T00:39:26;100761.16;;;2.63;100.00
67015;BME280;1033;52.560;13.374;2022-12-07T00:41:56;100752.78;;;2.58;100.00
67015;BME280;1033;52.560;13.374;2022-12-07T00:44:26;100749.81;;;2.61;100.00
67015;BME280;1033;52.560;13.374;2022-12-07T00:46:56;100750.47;;;2.63;100.00
67015;BME280;1033;52.560;13.374;2022-12-07T00:49:28;100746.13;;;2.62;100.00
67015;BME280;1033;52.560;13.374;2022-12-07T00:51:58;100747.31;;;2.42;100.00
67015;BME280;1033;52.560;13.374;2022-12-07T00:54:31;100751.13;;;2.39;100.00
67015;BME280;1033;52.560;13.374;2022-12-07T00:57:01;100746.22;;;2.35;100.00
67015;BME280;1033;52.560;13.374;2022-12-07T00:59:33;100751.25;;;2.20;100.00
67015;BME280;1033;52.560;13.374;2022-12-07T01:02:03;100743.56;;;2.17;100.00
67015;BME280;1033;52.560;13.374;2022-12-07T01:04:34;100737.22;;;2.00;100.00
67015;BME280;1033;52.560;13.374;2022-12-07T01:07:04;100742.09;;;1.87;100.00
67015;BME280;1033;52.560;13.374;2022-12-07T01:09:36;100738.13;;;1.91;100.00
67015;BME280;1033;52.560;13.374;2022-12-07T01:12:06;100734.53;;;2.00;100.00
67015;BME280;1033;52.560;13.374;2022-12-07T01:14:36;100733.63;;;2.09;100.00
67015;BME280;1033;52.560;13.374;2022-12-07T01:18:46;100727.84;;;2.14;100.00
67015;BME280;1033;52.560;13.374;2022-12-07T01:22:28;100719.63;;;2.07;100.00
67015;BME280;1033;52.560;13.374;2022-12-07T01:25:01;100727.00;;;2.13;99.61
67015;BME280;1033;52.560;13.374;2022-12-07T01:27:32;100721.72;;;2.04;99.07
67015;BME280;1033;52.560;13.374;2022-12-07T01:30:07;100726.22;;;2.03;99.62
67015;BME280;1033;52.560;13.374;2022-12-07T01:32:37;100717.94;;;2.06;99.56
67015;BME280;1033;52.560;13.374;2022-12-07T01:35:08;100716.84;;;1.99;99.40
67015;BME280;1033;52.560;13.374;2022-12-07T01:37:39;100712.53;;;1.98;99.06
67015;BME280;1033;52.560;13.374;2022-12-07T01:40:11;100713.56;;;2.05;98.78
67015;BME280;1033;52.560;13.374;2022-12-07T01:42:44;100722.13;;;2.09;98.36
67015;BME280;1033;52.560;13.374;2022-12-07T01:45:44;100720.59;;;2.06;98.04
67015;BME280;1033;52.560;13.374;2022-12-07T01:48:21;100709.78;;;2.08;97.91
67015;BME280;1033;52.560;13.374;2022-12-07T01:50:56;100709.31;;;2.12;97.49
67015;BME280;1033;52.560;13.374;2022-12-07T01:53:30;100701.97;;;2.14;97.08
67015;BME280;1033;52.560;13.374;2022-12-07T01:56:05;100696.13;;;2.11;97.49
67015;BME280;1033;52.560;13.374;2022-12-07T01:58:38;100692.16;;;2.15;96.82
67015;BME280;1033;52.560;13.374;2022-12-07T02:01:08;100688.19;;;2.19;96.25
67015;BME280;1033;52.560;13.374;2022-12-07T02:03:43;100683.69;;;2.19;95.93
67015;BME280;1033;52.560;13.374;2022-12-07T02:06:19;100682.31;;;2.15;96.61
67015;BME280;1033;52.560;13.374;2022-12-07T02:08:51;100683.69;;;2.02;97.03
67015;BME280;1033;52.560;13.374;2022-12-07T02:11:22;100686.38;;;2.02;97.24
67015;BME280;1033;52.560;13.374;2022-12-07T02:13:54;100675.31;;;1.97;96.21
67015;BME280;1033;52.560;13.374;2022-12-07T02:17:00;100684.22;;;2.05;96.12
67015;BME280;1033;52.560;13.374;2022-12-07T02:20:02;100672.69;;;1.87;96.14
67015;BME280;1033;52.560;13.374;2022-12-07T02:23:25;100673.75;;;1.94;96.32
67015;BME280;1033;52.560;13.374;2022-12-07T02:29:25;100676.03;;;1.89;96.22
67015;BME280;1033;52.560;13.374;2022-12-07T02:32:10;100673.09;;;1.92;95.93
67015;BME280;1033;52.560;13.374;2022-12-07T02:34:49;100661.56;;;1.74;96.61
67015;BME280;1033;52.560;13.374;2022-12-07T02:37:36;100653.41;;;1.75;96.74
67015;BME280;1033;52.560;13.374;2022-12-07T02:40:21;100657.50;;;1.70;96.91
67015;BME280;1033;52.560;13.374;2022-12-07T02:43:04;100646.75;;;1.62;97.60
67015;BME280;1033;52.560;13.374;2022-12-07T02:45:40;100651.78;;;1.65;97.60
67015;BME280;1033;52.560;13.374;2022-12-07T02:48:16;100646.75;;;1.62;98.30
67015;BME280;1033;52.560;13.374;2022-12-07T02:50:50;100644.72;;;1.73;98.77
67015;BME280;1033;52.560;13.374;2022-12-07T02:53:35;100636.88;;;1.72;98.22
67015;BME280;1033;52.560;13.374;2022-12-07T02:56:23;100648.38;;;1.72;98.58
67015;BME280;1033;52.560;13.374;2022-12-07T02:59:09;100633.50;;;1.70;98.50
67015;BME280;1033;52.560;13.374;2022-12-07T03:01:56;100639.38;;;1.73;99.03
67015;BME280;1033;52.560;13.374;2022-12-07T03:04:43;100627.78;;;1.65;99.55
67015;BME280;1033;52.560;13.374;2022-12-07T03:07:28;100626.25;;;1.80;99.33
67015;BME280;1033;52.560;13.374;2022-12-07T03:10:09;100615.22;;;1.75;99.41
67015;BME280;1033;52.560;13.374;2022-12-07T03:12:51;100614.38;;;1.74;99.68
67015;BME280;1033;52.560;13.374;2022-12-07T03:15:32;100602.66;;;1.67;100.00
67015;BME280;1033;52.560;13.374;2022-12-07T03:18:05;100604.41;;;1.77;100.00
67015;BME280;1033;52.560;13.374;2022-12-07T03:20:39;100600.28;;;1.82;100.00
67015;BME280;1033;52.560;13.374;2022-12-07T03:23:14;100594.63;;;1.85;100.00
67015;BME280;1033;52.560;13.374;2022-12-07T03:25:51;100602.78;;;2.01;100.00
67015;BME280;1033;52.560;13.374;2022-12-07T03:28:32;100589.66;;;2.08;100.00
67015;BME280;1033;52.560;13.374;2022-12-07T03:31:14;100578.44;;;2.04;100.00
67015;BME280;1033;52.560;13.374;2022-12-07T03:33:54;100572.81;;;2.07;100.00
67015;BME280;1033;52.560;13.374;2022-12-07T03:36:35;100571.34;;;2.13;100.00
67015;BME280;1033;52.560;13.374;2022-12-07T03:39:21;100566.22;;;2.19;100.00
67015;BME280;1033;52.560;13.374;2022-12-07T03:41:56;100559.94;;;2.29;100.00
67015;BME280;1033;52.560;13.374;2022-12-07T03:44:57;100551.03;;;2.46;100.00
67015;BME280;1033;52.560;13.374;2022-12-07T03:47:32;100549.00;;;2.40;100.00
67015;BME280;1033;52.560;13.374;2022-12-07T03:50:13;100542.44;;;2.60;99.55
67015;BME280;1033;52.560;13.374;2022-12-07T03:52:53;100539.19;;;2.48;99.63
67015;BME280;1033;52.560;13.374;2022-12-07T03:55:30;100531.03;;;2.50;99.63
67015;BME280;1033;52.560;13.374;2022-12-07T03:58:08;100530.81;;;2.43;99.89
67015;BME280;1033;52.560;13.374;2022-12-07T04:00:40;100535.31;;;2.43;100.00
67015;BME280;1033;52.560;13.374;2022-12-07T04:03:12;100528.72;;;2.55;99.78
67015;BME280;1033;52.560;13.374;2022-12-07T04:05:45;100532.84;;;2.49;100.00
67015;BME280;1033;52.560;13.374;2022-12-07T04:08:18;100525.19;;;2.46;100.00
67015;BME280;1033;52.560;13.374;2022-12-07T04:10:49;100520.31;;;2.42;100.00
67015;BME280;1033;52.560;13.374;2022-12-07T04:13:20;100506.16;;;2.49;100.00
67015;BME280;1033;52.560;13.374;2022-12-07T04:15:54;100506.66;;;2.53;100.00
67015;BME280;1033;52.560;13.374;2022-12-07T04:18:24;100513.41;;;2.65;100.00
67015;BME280;1033;52.560;13.374;2022-12-07T04:20:55;100511.34;;;2.51;100.00
67015;BME280;1033;52.560;13.374;2022-12-07T04:23:25;100514.03;;;2.59;100.00
67015;BME280;1033;52.560;13.374;2022-12-07T04:25:55;100501.38;;;2.61;100.00
67015;BME280;1033;52.560;13.374;2022-12-07T04:28:25;100505.75;;;2.70;100.00
67015;BME280;1033;52.560;13.374;2022-12-07T04:30:56;100497.38;;;2.65;100.00
67015;BME280;1033;52.560;13.374;2022-12-07T04:33:30;100494.28;;;2.52;100.00
67015;BME280;1033;52.560;13.374;2022-12-07T04:36:04;100495.94;;;2.45;100.00
67015;BME280;1033;52.560;13.374;2022-12-07T04:38:33;100483.59;;;2.44;100.00
67015;BME280;1033;52.560;13.374;2022-12-07T04:41:08;100482.94;;;2.50;100.00
67015;BME280;1033;52.560;13.374;2022-12-07T04:43:39;100483.78;;;2.50;100.00
67015;BME280;1033;52.560;13.374;2022-12-07T04:46:08;100487.59;;;2.48;100.00
67015;BME280;1033;52.560;13.374;2022-12-07T04:48:40;100476.13;;;2.55;100.00
67015;BME280;1033;52.560;13.374;2022-12-07T04:51:16;100480.63;;;2.55;100.00
67015;BME280;1033;52.560;13.374;2022-12-07T04:53:48;100484.19;;;2.63;100.00
67015;BME280;1033;52.560;13.374;2022-12-07T04:56:18;100478.31;;;2.60;100.00
67015;BME280;1033;52.560;13.374;2022-12-07T04:58:50;100481.34;;;2.65;100.00
67015;BME280;1033;52.560;13.374;2022-12-07T05:01:25;100475.16;;;2.65;100.00
67015;BME280;1033;52.560;13.374;2022-12-07T05:03:56;100470.78;;;2.55;100.00
67015;BME280;1033;52.560;13.374;2022-12-07T05:06:29;100478.00;;;2.63;100.00
67015;BME280;1033;52.560;13.374;2022-12-07T05:09:03;100475.59;;;2.52;100.00
67015;BME280;1033;52.560;13.374;2022-12-07T05:11:34;100469.00;;;2.64;100.00
67015;BME280;1033;52.560;13.374;2022-12-07T05:14:15;100462.13;;;2.61;100.00
67015;BME280;1033;52.560;13.374;2022-12-07T05:16:47;100459.97;;;2.65;100.00
67015;BME280;1033;52.560;13.374;2022-12-07T05:19:19;100460.00;;;2.81;100.00
67015;BME280;1033;52.560;13.374;2022-12-07T05:21:54;100455.28;;;2.67;100.00
67015;BME280;1033;52.560;13.374;2022-12-07T05:24:25;100458.00;;;2.75;100.00
67015;BME280;1033;52.560;13.374;2022-12-07T05:26:55;100450.84;;;2.76;100.00
67015;BME280;1033;52.560;13.374;2022-12-07T05:29:26;100459.84;;;2.75;100.00
67015;BME280;1033;52.560;13.374;2022-12-07T05:32:00;100460.34;;;2.70;100.00
67015;BME280;1033;52.560;13.374;2022-12-07T05:34:30;100454.66;;;2.81;100.00
67015;BME280;1033;52.560;13.374;2022-12-07T05:37:12;100454.66;;;2.81;100.00
67015;BME280;1033;52.560;13.374;2022-12-07T05:39:43;100455.69;;;2.88;100.00
67015;BME280;1033;52.560;13.374;2022-12-07T05:42:15;100447.34;;;2.83;100.00
67015;BME280;1033;52.560;13.374;2022-12-07T05:44:47;100433.97;;;2.75;100.00
67015;BME280;1033;52.560;13.374;2022-12-07T05:47:18;100441.66;;;2.86;100.00
67015;BME280;1033;52.560;13.374;2022-12-07T05:49:50;100439.50;;;2.90;100.00
67015;BME280;1033;52.560;13.374;2022-12-07T05:52:25;100427.16;;;2.97;100.00
67015;BME280;1033;52.560;13.374;2022-12-07T05:54:55;100433.31;;;2.89;100.00
67015;BME280;1033;52.560;13.374;2022-12-07T05:57:25;100427.78;;;2.91;100.00
67015;BME280;1033;52.560;13.374;2022-12-07T05:59:55;100425.16;;;2.99;100.00
67015;BME280;1033;52.560;13.374;2022-12-07T06:02:24;100416.59;;;2.95;100.00
67015;BME280;1033;52.560;13.374;2022-12-07T06:04:55;100414.97;;;3.02;100.00
67015;BME280;1033;52.560;13.374;2022-12-07T06:07:26;100415.31;;;2.99;100.00
67015;BME280;1033;52.560;13.374;2022-12-07T06:09:57;100409.13;;;2.99;100.00
67015;BME280;1033;52.560;13.374;2022-12-07T06:12:28;100402.78;;;3.00;100.00
67015;BME280;1033;52.560;13.374;2022-12-07T06:15:05;100402.28;;;3.13;100.00
67015;BME280;1033;52.560;13.374;2022-12-07T06:17:37;100402.97;;;3.23;100.00
67015;BME280;1033;52.560;13.374;2022-12-07T06:20:08;100399.28;;;3.32;100.00
67015;BME280;1033;52.560;13.374;2022-12-07T06:22:50;100407.97;;;3.26;100.00
67015;BME280;1033;52.560;13.374;2022-12-07T06:25:22;100394.59;;;3.18;100.00
67015;BME280;1033;52.560;13.374;2022-12-07T06:27:54;100400.94;;;3.25;100.00
67015;BME280;1033;52.560;13.374;2022-12-07T06:30:25;100400.44;;;3.13;100.00
67015;BME280;1033;52.560;13.374;2022-12-07T06:32:56;100393.75;;;3.09;100.00
67015;BME280;1033;52.560;13.374;2022-12-07T06:35:26;100407.78;;;3.11;100.00
67015;BME280;1033;52.560;13.374;2022-12-07T06:38:02;100394.44;;;3.19;100.00
67015;BME280;1033;52.560;13.374;2022-12-07T06:40:34;100395.09;;;3.21;100.00
67015;BME280;1033;52.560;13.374;2022-12-07T06:43:05;100406.28;;;3.17;100.00
67015;BME280;1033;52.560;13.374;2022-12-07T06:45:37;100394.25;;;3.21;100.00
67015;BME280;1033;52.560;13.374;2022-12-07T06:48:10;100394.09;;;3.30;100.00
67015;BME280;1033;52.560;13.374;2022-12-07T06:50:43;100390.25;;;3.25;100.00
67015;BME280;1033;52.560;13.374;2022-12-07T06:53:23;100390.56;;;3.30;100.00
67015;BME280;1033;52.560;13.374;2022-12-07T06:55:53;100395.94;;;3.38;100.00
67015;BME280;1033;52.560;13.374;2022-12-07T06:58:22;100388.59;;;3.24;100.00
67015;BME280;1033;52.560;13.374;2022-12-07T07:00:54;100385.91;;;3.32;100.00
67015;BME280;1033;52.560;13.374;2022-12-07T07:03:27;100389.41;;;3.32;100.00
67015;BME280;1033;52.560;13.374;2022-12-07T07:06:01;100386.59;;;3.34;100.00
67015;BME280;1033;52.560;13.374;2022-12-07T07:08:32;100386.06;;;3.30;100.00
67015;BME280;1033;52.560;13.374;2022-12-07T07:11:03;100393.59;;;3.35;100.00
67015;BME280;1033;52.560;13.374;2022-12-07T07:13:48;100388.91;;;3.45;100.00
67015;BME280;1033;52.560;13.374;2022-12-07T07:16:19;100384.41;;;3.37;100.00
67015;BME280;1033;52.560;13.374;2022-12-07T07:18:50;100396.28;;;3.43;100.00
67015;BME280;1033;52.560;13.374;2022-12-07T07:21:25;100401.94;;;3.56;100.00
67015;BME280;1033;52.560;13.374;2022-12-07T07:23:59;100400.94;;;3.49;100.00
67015;BME280;1033;52.560;13.374;2022-12-07T07:26:33;100394.94;;;3.47;100.00
67015;BME280;1033;52.560;13.374;2022-12-07T07:29:05;100398.44;;;3.47;100.00
67015;BME280;1033;52.560;13.374;2022-12-07T07:31:35;100389.91;;;3.44;100.00
67015;BME280;1033;52.560;13.374;2022-12-07T07:34:05;100394.25;;;3.45;100.00
67015;BME280;1033;52.560;13.374;2022-12-07T07:36:35;100388.59;;;3.48;100.00
67015;BME280;1033;52.560;13.374;2022-12-07T07:39:09;100386.56;;;3.42;100.00
67015;BME280;1033;52.560;13.374;2022-12-07T07:41:41;100389.41;;;3.40;100.00
67015;BME280;1033;52.560;13.374;2022-12-07T07:44:14;100396.75;;;3.46;100.00
67015;BME280;1033;52.560;13.374;2022-12-07T07:46:47;100396.41;;;3.49;100.00
67015;BME280;1033;52.560;13.374;2022-12-07T07:49:20;100391.56;;;3.61;100.00
67015;BME280;1033;52.560;13.374;2022-12-07T07:51:52;100390.22;;;3.65;100.00
67015;BME280;1033;52.560;13.374;2022-12-07T07:54:23;100397.25;;;3.66;100.00
67015;BME280;1033;52.560;13.374;2022-12-07T07:56:53;100399.91;;;3.74;100.00
67015;BME280;1033;52.560;13.374;2022-12-07T07:59:24;100398.41;;;3.64;100.00
67015;BME280;1033;52.560;13.374;2022-12-07T08:01:54;100401.28;;;3.62;100.00
67015;BME280;1033;52.560;13.374;2022-12-07T08:04:24;100407.94;;;3.66;100.00
67015;BME280;1033;52.560;13.374;2022-12-07T08:06:54;100405.91;;;3.68;100.00
67015;BME280;1033;52.560;13.374;2022-12-07T08:09:28;100408.59;;;3.68;100.00
67015;BME280;1033;52.560;13.374;2022-12-07T08:11:58;100414.63;;;3.70;100.00
67015;BME280;1033;52.560;13.374;2022-12-07T08:14:33;100410.59;;;3.74;100.00
67015;BME280;1033;52.560;13.374;2022-12-07T08:17:16;100399.56;;;3.69;100.00
67015;BME280;1033;52.560;13.374;2022-12-07T08:19:48;100400.72;;;3.75;100.00
67015;BME280;1033;52.560;13.374;2022-12-07T08:22:19;100399.56;;;3.77;99.73
67015;BME280;1033;52.560;13.374;2022-12-07T08:24:50;100402.41;;;3.76;99.01
67015;BME280;1033;52.560;13.374;2022-12-07T08:27:20;100402.56;;;3.74;99.09
67015;BME280;1033;52.560;13.374;2022-12-07T08:29:54;100408.91;;;3.73;99.49
67015;BME280;1033;52.560;13.374;2022-12-07T08:32:28;100416.59;;;3.84;98.71
67015;BME280;1033;52.560;13.374;2022-12-07T08:35:00;100407.59;;;3.69;98.23
67015;BME280;1033;52.560;13.374;2022-12-07T08:37:34;100414.13;;;3.75;98.34
67015;BME280;1033;52.560;13.374;2022-12-07T08:40:08;100409.09;;;3.80;97.97
67015;BME280;1033;52.560;13.374;2022-12-07T08:42:38;100416.97;;;3.81;97.20
67015;BME280;1033;52.560;13.374;2022-12-07T08:45:14;100416.63;;;3.68;95.96
67015;BME280;1033;52.560;13.374;2022-12-07T08:48:15;100424.97;;;3.89;96.22
67015;BME280;1033;52.560;13.374;2022-12-07T08:50:50;100424.13;;;3.73;95.35
67015;BME280;1033;52.560;13.374;2022-12-07T08:53:21;100422.81;;;3.85;95.06
67015;BME280;1033;52.560;13.374;2022-12-07T08:56:08;100429.00;;;3.85;94.30
67015;BME280;1033;52.560;13.374;2022-12-07T08:58:39;100430.66;;;3.94;93.78
67015;BME280;1033;52.560;13.374;2022-12-07T09:01:12;100437.66;;;3.87;92.49
67015;BME280;1033;52.560;13.374;2022-12-07T09:03:45;100445.06;;;3.85;91.50
67015;BME280;1033;52.560;13.374;2022-12-07T09:06:15;100434.69;;;3.82;90.87
67015;BME280;1033;52.560;13.374;2022-12-07T09:08:51;100441.72;;;3.91;90.25
67015;BME280;1033;52.560;13.374;2022-12-07T09:11:32;100445.72;;;3.96;89.06
67015;BME280;1033;52.560;13.374;2022-12-07T09:14:01;100461.78;;;3.96;89.17
67015;BME280;1033;52.560;13.374;2022-12-07T09:16:31;100448.72;;;3.92;88.64
67015;BME280;1033;52.560;13.374;2022-12-07T09:19:00;100445.22;;;3.92;87.44
67015;BME280;1033;52.560;13.374;2022-12-07T09:21:29;100458.47;;;3.77;86.30
67015;BME280;1033;52.560;13.374;2022-12-07T09:24:00;100462.97;;;3.77;85.39
67015;BME280;1033;52.560;13.374;2022-12-07T09:26:29;100462.81;;;3.62;84.95
67015;BME280;1033;52.560;13.374;2022-12-07T09:28:59;100457.13;;;3.57;84.73
67015;BME280;1033;52.560;13.374;2022-12-07T09:31:28;100469.81;;;3.63;83.86
67015;BME280;1033;52.560;13.374;2022-12-07T09:33:59;100469.81;;;3.55;82.64
67015;BME280;1033;52.560;13.374;2022-12-07T09:36:29;100450.75;;;3.50;83.21
67015;BME280;1033;52.560;13.374;2022-12-07T09:38:58;100467.16;;;3.55;83.74
67015;BME280;1033;52.560;13.374;2022-12-07T09:41:29;100468.47;;;3.75;83.13
67015;BME280;1033;52.560;13.374;2022-12-07T09:44:06;100474.50;;;3.69;81.66
67015;BME280;1033;52.560;13.374;2022-12-07T09:46:38;100484.03;;;3.64;83.03
67015;BME280;1033;52.560;13.374;2022-12-07T09:49:14;100474.31;;;3.55;84.02
67015;BME280;1033;52.560;13.374;2022-12-07T09:51:46;100480.88;;;3.52;83.71
67015;BME280;1033;52.560;13.374;2022-12-07T09:54:16;100478.84;;;3.46;83.24
67015;BME280;1033;52.560;13.374;2022-12-07T09:57:12;100476.84;;;3.40;84.37
67015;BME280;1033;52.560;13.374;2022-12-07T09:59:42;100467.81;;;3.41;84.65
67015;BME280;1033;52.560;13.374;2022-12-07T10:02:34;100483.53;;;3.36;83.07
67015;BME280;1033;52.560;13.374;2022-12-07T10:05:06;100479.19;;;3.43;84.31
67015;BME280;1033;52.560;13.374;2022-12-07T10:07:36;100489.03;;;3.50;83.33
67015;BME280;1033;52.560;13.374;2022-12-07T10:10:14;100486.53;;;3.65;82.63
67015;BME280;1033;52.560;13.374;2022-12-07T10:12:56;100476.84;;;3.64;82.71
67015;BME280;1033;52.560;13.374;2022-12-07T10:18:54;100480.19;;;3.74;82.23
67015;BME280;1033;52.560;13.374;2022-12-07T10:21:25;100477.00;;;3.71;83.51
67015;BME280;1033;52.560;13.374;2022-12-07T10:24:08;100473.66;;;3.69;82.35
67015;BME280;1033;52.560;13.374;2022-12-07T10:26:51;100474.16;;;3.64;81.14
67015;BME280;1033;52.560;13.374;2022-12-07T10:29:23;100470.16;;;3.76;82.03
67015;BME280;1033;52.560;13.374;2022-12-07T10:31:58;100469.97;;;3.86;81.10
67015;BME280;1033;52.560;13.374;2022-12-07T10:34:34;100476.31;;;4.01;80.55
67015;BME280;1033;52.560;13.374;2022-12-07T10:37:17;100474.50;;;4.02;80.44
67015;BME280;1033;52.560;13.374;2022-12-07T10:39:55;100484.13;;;4.19;80.40
67015;BME280;1033;52.560;13.374;2022-12-07T10:42:28;100477.47;;;4.15;80.80
67015;BME280;1033;52.560;13.374;2022-12-07T10:45:14;100473.97;;;4.06;81.31
67015;BME280;1033;52.560;13.374;2022-12-07T10:47:51;100478.47;;;3.98;82.17
67015;BME280;1033;52.560;13.374;2022-12-07T10:50:58;100479.50;;;3.64;83.44
67015;BME280;1033;52.560;13.374;2022-12-07T10:53:55;100472.16;;;3.50;84.53
67015;BME280;1033;52.560;13.374;2022-12-07T10:56:54;100467.97;;;3.56;84.65
67015;BME280;1033;52.560;13.374;2022-12-07T10:59:50;100463.97;;;3.68;84.88
67015;BME280;1033;52.560;13.374;2022-12-07T11:05:56;100469.16;;;3.85;84.80
67015;BME280;1033;52.560;13.374;2022-12-07T11:08:48;100468.09;;;4.03;84.37
67015;BME280;1033;52.560;13.374;2022-12-07T11:11:29;100474.81;;;3.90;84.62
67015;BME280;1033;52.560;13.374;2022-12-07T11:14:12;100469.16;;;3.85;85.20
67015;BME280;1033;52.560;13.374;2022-12-07T11:16:58;100468.31;;;3.77;85.81
67015;BME280;1033;52.560;13.374;2022-12-07T11:19:54;100458.63;;;3.68;85.67
67015;BME280;1033;52.560;13.374;2022-12-07T11:22:40;100465.31;;;3.72;85.22
67015;BME280;1033;52.560;13.374;2022-12-07T11:25:24;100460.91;;;4.03;85.46
67015;BME280;1033;52.560;13.374;2022-12-07T11:28:19;100445.13;;;4.24;83.58
67015;BME280;1033;52.560;13.374;2022-12-07T11:31:05;100448.31;;;4.20;83.10
67015;BME280;1033;52.560;13.374;2022-12-07T11:38:17;100442.00;;;4.05;84.42
67015;BME280;1033;52.560;13.374;2022-12-07T11:41:02;100440.81;;;4.15;85.07
67015;BME280;1033;52.560;13.374;2022-12-07T11:43:56;100445.53;;;4.05;85.18
67015;BME280;1033;52.560;13.374;2022-12-07T11:46:40;100450.13;;;4.27;85.18
67015;BME280;1033;52.560;13.374;2022-12-07T11:49:21;100443.66;;;4.14;85.16
67015;BME280;1033;52.560;13.374;2022-12-07T11:51:58;100438.97;;;4.16;85.63
67015;BME280;1033;52.560;13.374;2022-12-07T11:54:40;100435.44;;;4.15;86.02
67015;BME280;1033;52.560;13.374;2022-12-07T11:57:20;100438.88;;;4.40;85.69
67015;BME280;1033;52.560;13.374;2022-12-07T11:59:59;100430.84;;;4.40;84.77
67015;BME280;1033;52.560;13.374;2022-12-07T12:02:41;100437.47;;;4.52;84.06
67015;BME280;1033;52.560;13.374;2022-12-07T12:05:17;100440.53;;;4.41;84.13
67015;BME280;1033;52.560;13.374;2022-12-07T12:13:00;100418.91;;;4.51;83.33
67015;BME280;1033;52.560;13.374;2022-12-07T12:16:13;100411.38;;;4.46;83.26
67015;BME280;1033;52.560;13.374;2022-12-07T12:19:04;100416.63;;;4.40;83.89
67015;BME280;1033;52.560;13.374;2022-12-07T12:21:42;100412.38;;;4.53;83.31
67015;BME280;1033;52.560;13.374;2022-12-07T12:24:24;100416.41;;;4.49;84.15
67015;BME280;1033;52.560;13.374;2022-12-07T12:27:02;100411.66;;;4.59;83.99
67015;BME280;1033;52.560;13.374;2022-12-07T12:29:38;100410.38;;;4.47;83.48
67015;BME280;1033;52.560;13.374;2022-12-07T12:32:20;100411.75;;;4.43;84.61
67015;BME280;1033;52.560;13.374;2022-12-07T12:35:20;100416.03;;;4.52;84.29
67015;BME280;1033;52.560;13.374;2022-12-07T12:37:54;100407.38;;;4.50;84.58
67015;BME280;1033;52.560;13.374;2022-12-07T12:40:52;100415.03;;;4.53;83.96
67015;BME280;1033;52.560;13.374;2022-12-07T12:43:50;100409.38;;;4.48;83.75
67015;BME280;1033;52.560;13.374;2022-12-07T12:46:49;100408.06;;;4.44;83.63
67015;BME280;1033;52.560;13.374;2022-12-07T12:49:38;100413.41;;;4.44;83.99
67015;BME280;1033;52.560;13.374;2022-12-07T12:52:51;100402.00;;;4.50;84.08
67015;BME280;1033;52.560;13.374;2022-12-07T12:55:50;100407.06;;;4.37;84.48
67015;BME280;1033;52.560;13.374;2022-12-07T12:58:48;100401.72;;;4.37;84.61
67015;BME280;1033;52.560;13.374;2022-12-07T13:01:47;100396.66;;;4.42;84.84
67015;BME280;1033;52.560;13.374;2022-12-07T13:07:59;100399.34;;;4.42;85.62
67015;BME280;1033;52.560;13.374;2022-12-07T13:10:43;100402.69;;;4.44;84.80
67015;BME280;1033;52.560;13.374;2022-12-07T13:13:35;100411.09;;;4.33;85.88
67015;BME280;1033;52.560;13.374;2022-12-07T13:16:40;100407.25;;;4.35;86.48
67015;BME280;1033;52.560;13.374;2022-12-07T13:19:58;100405.38;;;4.36;85.70
67015;BME280;1033;52.560;13.374;2022-12-07T13:22:44;100400.91;;;4.28;86.00
67015;BME280;1033;52.560;13.374;2022-12-07T13:25:33;100404.91;;;4.32;86.69
67015;BME280;1033;52.560;13.374;2022-12-07T13:28:16;100406.59;;;4.33;86.59
67015;BME280;1033;52.560;13.374;2022-12-07T13:31:01;100409.09;;;4.35;86.90
67015;BME280;1033;52.560;13.374;2022-12-07T13:33:35;100409.44;;;4.32;85.90
67015;BME280;1033;52.560;13.374;2022-12-07T13:36:19;100402.72;;;4.36;86.01
67015;BME280;1033;52.560;13.374;2022-12-07T13:38:54;100398.94;;;4.22;85.24
67015;BME280;1033;52.560;13.374;2022-12-07T13:41:25;100393.56;;;4.22;86.06
67015;BME280;1033;52.560;13.374;2022-12-07T13:44:03;100395.09;;;4.25;86.20
67015;BME280;1033;52.560;13.374;2022-12-07T13:46:49;100394.03;;;4.34;86.01
67015;BME280;1033;52.560;13.374;2022-12-07T13:49:48;100393.88;;;4.35;84.95
67015;BME280;1033;52.560;13.374;2022-12-07T13:52:27;100405.72;;;4.41;84.26
67015;BME280;1033;52.560;13.374;2022-12-07T13:55:13;100402.38;;;4.39;84.56
67015;BME280;1033;52.560;13.374;2022-12-07T13:57:48;100400.88;;;4.36;84.64
67015;BME280;1033;52.560;13.374;2022-12-07T14:00:30;100406.38;;;4.43;84.12
67015;BME280;1033;52.560;13.374;2022-12-07T14:03:02;100408.22;;;4.43;84.13
67015;BME280;1033;52.560;13.374;2022-12-07T14:05:36;100408.06;;;4.36;83.16
67015;BME280;1033;52.560;13.374;2022-12-07T14:08:24;100414.78;;;4.32;82.32
67015;BME280;1033;52.560;13.374;2022-12-07T14:11:01;100406.91;;;4.38;82.44
67015;BME280;1033;52.560;13.374;2022-12-07T14:13:34;100414.78;;;4.32;83.34